createdAt,value
2022-12-29T00:01:39.139Z,13.91
2022-12-29T00:04:08.817Z,13.95
2022-12-29T00:06:39.400Z,13.92
2022-12-29T00:09:05.835Z,13.93
2022-12-29T00:11:32.249Z,13.94
2022-12-29T00:14:21.422Z,13.96
2022-12-29T00:16:50.779Z,14.01
2022-12-29T00:19:35.939Z,14.02
2022-12-29T00:22:20.800Z,14.04
2022-12-29T00:24:56.119Z,14.07
2022-12-29T00:27:41.273Z,14.08
2022-12-29T00:30:34.016Z,14.01
2022-12-29T00:33:19.308Z,14.10
2022-12-29T00:35:53.448Z,14.13
2022-12-29T00:38:38.799Z,14.17
2022-12-29T00:41:24.128Z,14.17
2022-12-29T00:44:11.146Z,14.18
2022-12-29T00:46:38.786Z,14.24
2022-12-29T00:49:24.984Z,14.20
2022-12-29T00:51:51.629Z,14.28
2022-12-29T00:54:18.490Z,14.29
2022-12-29T00:56:46.668Z,14.29
2022-12-29T00:59:13.168Z,14.34
2022-12-29T01:01:40.148Z,14.33
2022-12-29T01:04:07.312Z,14.37
2022-12-29T01:06:34.434Z,14.31
2022-12-29T01:09:19.580Z,14.35
2022-12-29T01:11:46.025Z,14.34
2022-12-29T01:14:12.524Z,14.33
2022-12-29T01:16:38.990Z,14.36
2022-12-29T01:19:05.620Z,14.31
2022-12-29T01:21:32.363Z,14.35
2022-12-29T01:23:58.822Z,14.35
2022-12-29T01:26:25.403Z,14.35
2022-12-29T01:28:51.936Z,14.37
2022-12-29T01:31:18.426Z,14.32
2022-12-29T01:33:44.938Z,14.35
2022-12-29T01:36:13.425Z,14.32
2022-12-29T01:38:41.163Z,14.31
2022-12-29T01:41:08.552Z,14.36
2022-12-29T01:43:42.414Z,14.32
2022-12-29T01:46:27.078Z,14.34
2022-12-29T01:49:00.746Z,14.39
2022-12-29T01:51:30.074Z,14.37
2022-12-29T01:53:56.918Z,14.39
2022-12-29T01:56:23.911Z,14.38
2022-12-29T01:58:55.599Z,14.42
2022-12-29T02:01:22.810Z,14.40
2022-12-29T02:03:51.063Z,14.42
2022-12-29T02:06:22.074Z,14.44
2022-12-29T02:08:50.582Z,14.43
2022-12-29T02:11:17.263Z,14.43
2022-12-29T02:13:43.651Z,14.45
2022-12-29T02:16:28.810Z,14.38
2022-12-29T02:19:07.218Z,14.43
2022-12-29T02:21:52.667Z,14.45
2022-12-29T02:24:25.305Z,14.42
2022-12-29T02:27:12.236Z,14.43
2022-12-29T02:29:41.782Z,14.46
2022-12-29T02:32:11.269Z,14.35
2022-12-29T02:34:52.881Z,14.42
2022-12-29T02:37:28.644Z,14.39
2022-12-29T02:40:02.508Z,14.45
2022-12-29T02:42:38.223Z,14.42
2022-12-29T02:45:04.679Z,14.41
2022-12-29T02:47:40.109Z,14.44
2022-12-29T02:50:21.631Z,14.38
2022-12-29T02:52:51.823Z,14.41
2022-12-29T02:55:18.422Z,14.43
2022-12-29T02:57:44.945Z,14.44
2022-12-29T03:00:13.493Z,14.44
2022-12-29T03:02:55.517Z,14.46
2022-12-29T03:05:34.475Z,14.44
2022-12-29T03:08:30.272Z,14.43
2022-12-29T03:11:28.241Z,14.46
2022-12-29T03:14:16.551Z,14.47
2022-12-29T03:16:46.774Z,14.49
2022-12-29T03:19:16.393Z,14.49
2022-12-29T03:22:05.751Z,14.53
2022-12-29T03:24:37.340Z,14.51
2022-12-29T03:27:05.515Z,14.54
2022-12-29T03:29:34.002Z,14.52
2022-12-29T03:32:02.687Z,14.54
2022-12-29T03:34:29.519Z,14.56
2022-12-29T03:37:00.181Z,14.55
2022-12-29T03:39:27.629Z,14.58
2022-12-29T03:42:00.993Z,14.56
2022-12-29T03:44:35.129Z,14.57
2022-12-29T03:47:01.767Z,14.55
2022-12-29T03:49:28.391Z,14.58
2022-12-29T03:51:54.964Z,14.58
2022-12-29T03:54:21.521Z,14.61
2022-12-29T03:56:48.088Z,14.61
2022-12-29T03:59:14.541Z,14.66
2022-12-29T04:01:41.252Z,14.67
2022-12-29T04:04:07.884Z,14.69
2022-12-29T04:06:34.280Z,14.70
2022-12-29T04:09:00.862Z,14.67
2022-12-29T04:11:32.860Z,14.73
2022-12-29T04:13:59.830Z,14.68
2022-12-29T04:16:26.288Z,14.73
2022-12-29T04:18:52.772Z,14.77
2022-12-29T04:21:19.328Z,14.80
2022-12-29T04:23:45.866Z,14.81
2022-12-29T04:26:12.469Z,14.83
2022-12-29T04:28:38.953Z,14.84
2022-12-29T04:31:05.965Z,14.86
2022-12-29T04:33:32.435Z,14.89
2022-12-29T04:35:58.873Z,14.91
2022-12-29T04:38:25.386Z,14.94
2022-12-29T04:40:52.471Z,14.95
2022-12-29T04:43:23.323Z,14.97
2022-12-29T04:45:49.806Z,15.00
2022-12-29T04:48:16.788Z,15.00
2022-12-29T04:50:44.057Z,15.01
2022-12-29T04:53:10.796Z,14.98
2022-12-29T04:55:37.242Z,15.04
2022-12-29T04:58:03.772Z,15.08
2022-12-29T05:00:30.336Z,15.10
2022-12-29T05:02:56.997Z,15.14
2022-12-29T05:05:23.693Z,15.12
2022-12-29T05:39:08.822Z,15.42
2022-12-29T05:41:35.448Z,15.44
2022-12-29T05:44:02.464Z,15.47
2022-12-29T05:46:29.145Z,15.38
2022-12-29T05:48:55.731Z,15.46
2022-12-29T05:51:22.196Z,15.49
2022-12-29T05:53:48.633Z,15.48
2022-12-29T05:56:15.140Z,15.48
2022-12-29T05:58:41.525Z,15.50
2022-12-29T06:01:08.064Z,15.47
2022-12-29T06:03:34.588Z,15.48
2022-12-29T06:06:01.143Z,15.45
2022-12-29T06:08:27.544Z,15.45
2022-12-29T06:10:54.046Z,15.43
2022-12-29T06:13:20.587Z,15.44
2022-12-29T06:15:49.301Z,15.46
2022-12-29T06:18:19.889Z,15.41
2022-12-29T06:20:47.073Z,15.36
2022-12-29T06:23:14.289Z,15.41
2022-12-29T06:25:41.363Z,15.41
2022-12-29T06:28:07.902Z,15.41
2022-12-29T06:30:34.637Z,15.39
2022-12-29T06:33:01.108Z,15.43
2022-12-29T06:35:27.810Z,15.42
2022-12-29T06:37:54.289Z,15.45
2022-12-29T06:40:20.795Z,15.44
2022-12-29T06:42:47.267Z,15.44
2022-12-29T06:45:13.680Z,15.49
2022-12-29T06:47:40.130Z,15.47
2022-12-29T06:50:06.999Z,15.49
2022-12-29T06:52:33.521Z,15.51
2022-12-29T06:55:00.306Z,15.45
2022-12-29T06:57:27.665Z,15.54
2022-12-29T06:59:56.778Z,15.54
2022-12-29T07:02:23.739Z,15.53
2022-12-29T07:04:50.245Z,15.58
2022-12-29T07:07:17.141Z,15.60
2022-12-29T07:09:43.898Z,15.59
2022-12-29T07:12:10.341Z,15.57
2022-12-29T07:14:42.997Z,15.61
2022-12-29T07:17:10.200Z,15.62
2022-12-29T07:19:36.812Z,15.61
2022-12-29T07:22:03.352Z,15.64
2022-12-29T07:24:30.900Z,15.64
2022-12-29T07:26:57.455Z,15.64
2022-12-29T07:29:23.964Z,15.64
2022-12-29T07:31:50.461Z,15.62
2022-12-29T07:34:16.979Z,15.67
2022-12-29T07:36:43.753Z,15.65
2022-12-29T07:39:10.319Z,15.67
2022-12-29T07:41:36.754Z,15.66
2022-12-29T07:44:03.213Z,15.67
2022-12-29T07:46:55.433Z,15.69
2022-12-29T07:49:16.104Z,15.69
2022-12-29T07:51:42.516Z,15.74
2022-12-29T07:54:09.882Z,15.66
2022-12-29T07:56:36.430Z,15.73
2022-12-29T07:59:02.836Z,15.72
2022-12-29T08:01:29.400Z,15.75
2022-12-29T08:03:57.771Z,15.82
2022-12-29T08:06:24.482Z,15.79
2022-12-29T08:08:50.937Z,15.79
2022-12-29T08:11:19.191Z,15.86
2022-12-29T08:13:45.647Z,15.81
2022-12-29T08:16:12.125Z,15.90
2022-12-29T08:18:38.987Z,15.87
2022-12-29T08:21:05.574Z,15.86
2022-12-29T08:23:32.323Z,15.89
2022-12-29T08:26:03.910Z,15.87
2022-12-29T08:28:32.096Z,15.93
2022-12-29T08:30:59.362Z,15.96
2022-12-29T08:33:25.897Z,15.93
2022-12-29T08:35:52.306Z,15.98
2022-12-29T08:38:19.086Z,15.96
2022-12-29T08:40:45.617Z,15.95
2022-12-29T08:43:13.724Z,15.97
2022-12-29T08:45:43.483Z,15.91
2022-12-29T08:48:09.977Z,15.97
2022-12-29T08:50:36.445Z,15.96
2022-12-29T08:53:02.836Z,15.94
2022-12-29T08:55:29.487Z,15.98
2022-12-29T08:57:55.933Z,15.90
2022-12-29T09:00:22.860Z,15.91
2022-12-29T09:02:49.575Z,15.91
2022-12-29T09:05:16.281Z,15.93
2022-12-29T09:07:43.085Z,15.90
2022-12-29T09:10:09.541Z,15.88
2022-12-29T09:12:36.873Z,15.89
2022-12-29T09:15:03.571Z,15.77
2022-12-29T09:17:43.455Z,15.80
2022-12-29T09:20:10.428Z,15.79
2022-12-29T09:22:37.570Z,15.78
2022-12-29T09:25:04.634Z,15.79
2022-12-29T09:27:31.343Z,15.77
2022-12-29T09:29:57.804Z,15.75
2022-12-29T09:32:26.458Z,15.78
2022-12-29T09:34:55.039Z,15.77
2022-12-29T09:37:22.518Z,15.78
2022-12-29T09:39:54.061Z,15.77
2022-12-29T09:42:33.409Z,15.78
2022-12-29T09:45:17.696Z,15.73
2022-12-29T09:47:45.014Z,15.76
2022-12-29T09:50:28.169Z,15.78
2022-12-29T09:53:00.782Z,15.69
2022-12-29T09:55:32.607Z,15.72
2022-12-29T09:58:02.069Z,15.74
2022-12-29T10:00:39.796Z,15.75
2022-12-29T10:03:16.680Z,15.80
2022-12-29T10:05:54.108Z,15.81
2022-12-29T10:08:38.787Z,15.85
2022-12-29T10:11:24.175Z,15.83
2022-12-29T10:13:50.755Z,15.83
2022-12-29T10:16:26.152Z,15.92
2022-12-29T10:18:55.612Z,15.96
2022-12-29T10:21:35.167Z,16.05
2022-12-29T10:24:03.339Z,16.10
2022-12-29T10:26:32.660Z,16.15
2022-12-29T10:29:15.789Z,16.14
2022-12-29T10:31:45.047Z,16.15
2022-12-29T10:34:17.199Z,16.19
2022-12-29T10:36:48.416Z,16.16
2022-12-29T10:39:27.833Z,16.16
2022-12-29T10:41:58.760Z,16.20
2022-12-29T10:44:28.419Z,16.26
2022-12-29T10:47:03.646Z,16.33
2022-12-29T10:49:31.466Z,16.39
2022-12-29T10:51:59.575Z,16.42
2022-12-29T10:54:33.896Z,16.45
2022-12-29T10:57:05.411Z,16.50
2022-12-29T10:59:33.923Z,16.54
2022-12-29T11:02:13.070Z,16.54
2022-12-29T11:05:04.138Z,16.54
2022-12-29T11:07:31.354Z,16.64
2022-12-29T11:10:17.123Z,16.68
2022-12-29T11:12:55.161Z,16.72
2022-12-29T11:15:21.619Z,16.67
2022-12-29T11:17:57.178Z,16.71
2022-12-29T11:20:38.550Z,16.68
2022-12-29T11:23:06.889Z,16.59
2022-12-29T11:25:33.380Z,16.59
2022-12-29T11:27:59.915Z,16.56
2022-12-29T11:30:28.431Z,16.53
2022-12-29T11:32:55.683Z,16.49
2022-12-29T11:35:40.585Z,16.40
2022-12-29T11:38:07.691Z,16.20
2022-12-29T11:40:39.066Z,16.22
2022-12-29T11:43:06.105Z,16.02
2022-12-29T11:45:36.569Z,16.02
2022-12-29T11:48:13.380Z,15.98
2022-12-29T11:50:44.017Z,15.80
2022-12-29T11:53:22.847Z,15.78
2022-12-29T11:55:54.240Z,15.61
2022-12-29T11:58:20.749Z,15.62
2022-12-29T12:00:48.409Z,15.60
2022-12-29T12:03:18.792Z,15.57
2022-12-29T12:05:55.059Z,15.50
2022-12-29T12:08:40.126Z,15.52
2022-12-29T12:11:12.641Z,15.52
2022-12-29T12:13:57.946Z,15.57
2022-12-29T12:16:29.477Z,15.62
2022-12-29T12:18:58.438Z,15.67
2022-12-29T12:21:45.405Z,15.73
2022-12-29T12:24:31.612Z,15.72
2022-12-29T12:27:03.447Z,15.71
2022-12-29T12:29:35.410Z,15.67
2022-12-29T12:32:02.004Z,15.77
2022-12-29T12:34:34.954Z,15.76
2022-12-29T12:37:01.421Z,15.71
2022-12-29T12:39:35.024Z,15.71
2022-12-29T12:42:26.080Z,15.69
2022-12-29T12:45:27.865Z,15.63
2022-12-29T12:47:54.340Z,15.66
2022-12-29T12:50:23.851Z,15.60
2022-12-29T12:53:09.222Z,15.51
2022-12-29T12:55:44.959Z,15.60
2022-12-29T12:58:19.347Z,15.60
2022-12-29T13:00:58.168Z,15.58
2022-12-29T13:03:43.584Z,15.59
2022-12-29T13:06:36.347Z,15.57
2022-12-29T13:09:15.212Z,15.51
2022-12-29T13:12:00.512Z,15.51
2022-12-29T13:14:36.124Z,15.54
2022-12-29T13:17:05.365Z,15.53
2022-12-29T13:19:35.674Z,15.52
2022-12-29T13:22:17.370Z,15.50
2022-12-29T13:24:49.997Z,15.53
2022-12-29T13:27:16.600Z,15.52
2022-12-29T13:29:43.063Z,15.56
2022-12-29T13:32:28.473Z,15.54
2022-12-29T13:35:08.654Z,15.58
2022-12-29T13:37:37.221Z,15.52
2022-12-29T13:40:06.321Z,15.55
2022-12-29T13:42:33.146Z,15.52
2022-12-29T13:45:15.075Z,15.59
2022-12-29T13:47:43.319Z,15.52
2022-12-29T13:50:15.234Z,15.57
2022-12-29T13:52:50.417Z,15.58
2022-12-29T13:55:24.287Z,15.62
2022-12-29T13:57:56.720Z,15.60
2022-12-29T14:00:24.542Z,15.61
2022-12-29T14:03:03.284Z,15.60
2022-12-29T14:05:31.597Z,15.63
2022-12-29T14:08:03.089Z,15.65
2022-12-29T14:10:34.432Z,15.60
2022-12-29T14:13:03.300Z,15.59
2022-12-29T14:15:29.864Z,15.62
2022-12-29T14:18:11.492Z,15.63
2022-12-29T14:20:39.092Z,15.61
2022-12-29T14:23:11.384Z,15.54
2022-12-29T14:25:57.716Z,15.61
2022-12-29T14:28:28.655Z,15.49
2022-12-29T14:30:56.354Z,15.60
2022-12-29T14:33:24.989Z,15.48
2022-12-29T14:35:53.298Z,15.60
2022-12-29T14:38:23.100Z,15.55
2022-12-29T14:40:50.569Z,15.48
2022-12-29T14:43:22.773Z,15.57
2022-12-29T14:45:54.039Z,15.63
2022-12-29T14:48:30.878Z,15.56
2022-12-29T14:50:57.421Z,15.56
2022-12-29T14:53:44.041Z,15.53
2022-12-29T14:56:12.043Z,15.33
2022-12-29T14:59:02.713Z,15.48
2022-12-29T15:01:45.615Z,15.51
2022-12-29T15:04:20.580Z,15.49
2022-12-29T15:06:47.525Z,15.45
2022-12-29T15:09:21.492Z,15.40
2022-12-29T15:11:53.104Z,15.40
2022-12-29T15:14:33.841Z,15.39
2022-12-29T15:17:02.024Z,15.33
2022-12-29T15:19:29.258Z,15.43
2022-12-29T15:21:56.614Z,15.39
2022-12-29T15:24:23.258Z,15.32
2022-12-29T15:26:54.439Z,15.37
2022-12-29T15:29:29.897Z,15.30
2022-12-29T15:31:56.728Z,15.13
2022-12-29T15:34:23.509Z,15.17
2022-12-29T15:36:51.378Z,15.16
2022-12-29T15:39:21.527Z,15.23
2022-12-29T15:42:01.136Z,15.24
2022-12-29T15:44:30.782Z,15.22
2022-12-29T15:46:57.425Z,15.16
2022-12-29T15:49:31.874Z,15.23
2022-12-29T15:51:59.113Z,15.22
2022-12-29T15:54:27.457Z,15.19
2022-12-29T15:56:54.022Z,15.17
2022-12-29T15:59:29.724Z,15.18
2022-12-29T16:01:57.315Z,15.17
2022-12-29T16:04:25.116Z,15.15
2022-12-29T16:06:56.749Z,15.12
2022-12-29T16:09:41.910Z,14.97
2022-12-29T16:12:28.678Z,14.89
2022-12-29T16:15:02.617Z,14.91
2022-12-29T16:17:30.629Z,14.94
2022-12-29T16:20:01.630Z,14.94
2022-12-29T16:22:35.820Z,14.87
2022-12-29T16:25:05.221Z,14.86
2022-12-29T16:27:39.825Z,14.82
2022-12-29T16:30:33.135Z,14.84
2022-12-29T16:33:01.445Z,14.74
2022-12-29T16:35:28.957Z,14.63
2022-12-29T16:38:14.640Z,14.69
2022-12-29T16:40:50.895Z,14.62
2022-12-29T16:43:22.033Z,14.63
2022-12-29T16:45:48.647Z,14.56
2022-12-29T16:48:15.140Z,14.57
2022-12-29T16:50:43.415Z,14.56
2022-12-29T16:53:29.413Z,14.48
2022-12-29T16:55:56.698Z,14.52
2022-12-29T16:58:25.426Z,14.50
2022-12-29T17:00:55.103Z,14.49
2022-12-29T17:03:21.781Z,14.49
2022-12-29T17:05:52.686Z,14.48
2022-12-29T17:08:25.081Z,14.49
2022-12-29T17:11:14.923Z,14.49
2022-12-29T17:13:41.881Z,14.48
2022-12-29T17:16:10.903Z,14.49
2022-12-29T17:18:37.558Z,14.49
2022-12-29T17:21:04.183Z,14.51
2022-12-29T17:23:32.130Z,14.45
2022-12-29T17:25:58.700Z,14.50
2022-12-29T17:28:27.428Z,14.51
2022-12-29T17:30:56.100Z,14.52
2022-12-29T17:33:22.721Z,14.54
2022-12-29T17:35:53.376Z,14.50
2022-12-29T17:38:26.731Z,14.52
2022-12-29T17:40:53.417Z,14.54
2022-12-29T17:43:20.404Z,14.54
2022-12-29T17:45:54.205Z,14.55
2022-12-29T17:48:21.199Z,14.50
2022-12-29T17:50:48.771Z,14.51
2022-12-29T17:53:16.962Z,14.49
2022-12-29T17:55:43.552Z,14.47
2022-12-29T17:58:20.643Z,14.46
2022-12-29T18:00:48.245Z,14.50
2022-12-29T18:03:15.988Z,14.49
2022-12-29T18:05:42.781Z,14.49
2022-12-29T18:08:10.479Z,14.46
2022-12-29T18:10:36.972Z,14.44
2022-12-29T18:13:03.865Z,14.39
2022-12-29T18:15:32.147Z,14.42
2022-12-29T18:18:00.401Z,14.42
2022-12-29T18:20:28.307Z,14.40
2022-12-29T18:22:54.803Z,14.42
2022-12-29T18:25:24.112Z,14.42
2022-12-29T18:27:50.687Z,14.44
2022-12-29T18:30:17.297Z,14.41
2022-12-29T18:32:43.828Z,14.40
2022-12-29T18:35:17.249Z,14.42
2022-12-29T18:37:43.733Z,14.41
2022-12-29T18:40:12.781Z,14.40
2022-12-29T18:42:39.764Z,14.37
2022-12-29T18:45:19.815Z,14.41
2022-12-29T18:47:46.395Z,14.41
2022-12-29T18:50:13.453Z,14.42
2022-12-29T18:52:40.519Z,14.40
2022-12-29T18:55:18.781Z,14.39
2022-12-29T18:57:45.239Z,14.39
2022-12-29T19:00:12.797Z,14.40
2022-12-29T19:02:39.396Z,14.41
2022-12-29T19:05:26.197Z,14.40
2022-12-29T19:07:53.270Z,14.37
2022-12-29T19:10:20.475Z,14.34
2022-12-29T19:12:47.143Z,14.35
2022-12-29T19:15:22.897Z,14.34
2022-12-29T19:18:08.239Z,14.28
2022-12-29T19:20:38.391Z,14.28
2022-12-29T19:23:06.417Z,14.36
2022-12-29T19:25:33.055Z,14.40
2022-12-29T19:28:00.399Z,14.39
2022-12-29T19:30:27.840Z,14.41
2022-12-29T19:32:55.392Z,14.43
